sensor_id;sensor_type;location;lat;lon;timestamp;P1;durP1;ratioP1;P2;durP2;ratioP2
9997;SDS011;5038;53.064;8.624;2023-04-07T00:00:18;14.17;;;12.70;;
9997;SDS011;5038;53.064;8.624;2023-04-07T00:02:46;15.63;;;13.93;;
9997;SDS011;5038;53.064;8.624;2023-04-07T00:05:15;14.83;;;13.30;;
9997;SDS011;5038;53.064;8.624;2023-04-07T00:07:43;14.13;;;12.73;;
9997;SDS011;5038;53.064;8.624;2023-04-07T00:10:24;15.17;;;13.40;;
9997;SDS011;5038;53.064;8.624;2023-04-07T00:12:52;14.47;;;13.07;;
9997;SDS011;5038;53.064;8.624;2023-04-07T00:15:20;14.70;;;13.30;;
9997;SDS011;5038;53.064;8.624;2023-04-07T00:17:48;15.50;;;13.90;;
9997;SDS011;5038;53.064;8.624;2023-04-07T00:20:16;14.43;;;13.13;;
9997;SDS011;5038;53.064;8.624;2023-04-07T00:22:45;14.70;;;12.90;;
9997;SDS011;5038;53.064;8.624;2023-04-07T00:25:13;15.60;;;14.10;;
9997;SDS011;5038;53.064;8.624;2023-04-07T00:27:43;14.63;;;13.23;;
9997;SDS011;5038;53.064;8.624;2023-04-07T00:30:12;14.40;;;13.00;;
9997;SDS011;5038;53.064;8.624;2023-04-07T00:32:40;14.10;;;12.80;;
9997;SDS011;5038;53.064;8.624;2023-04-07T00:35:10;14.87;;;13.47;;
9997;SDS011;5038;53.064;8.624;2023-04-07T00:37:39;14.33;;;12.90;;
9997;SDS011;5038;53.064;8.624;2023-04-07T00:40:08;14.50;;;13.10;;
9997;SDS011;5038;53.064;8.624;2023-04-07T00:42:36;15.53;;;13.90;;
9997;SDS011;5038;53.064;8.624;2023-04-07T00:45:07;15.07;;;13.57;;
9997;SDS011;5038;53.064;8.624;2023-04-07T00:47:36;15.93;;;14.43;;
9997;SDS011;5038;53.064;8.624;2023-04-07T00:50:05;15.90;;;14.30;;
9997;SDS011;5038;53.064;8.624;2023-04-07T00:52:34;15.17;;;13.77;;
9997;SDS011;5038;53.064;8.624;2023-04-07T00:55:03;15.03;;;13.57;;
9997;SDS011;5038;53.064;8.624;2023-04-07T00:57:31;14.30;;;12.90;;
9997;SDS011;5038;53.064;8.624;2023-04-07T01:00:00;16.43;;;14.93;;
9997;SDS011;5038;53.064;8.624;2023-04-07T01:02:32;16.03;;;14.43;;
9997;SDS011;5038;53.064;8.624;2023-04-07T01:05:07;16.93;;;14.43;;
9997;SDS011;5038;53.064;8.624;2023-04-07T01:07:43;15.77;;;14.27;;
9997;SDS011;5038;53.064;8.624;2023-04-07T01:10:26;17.73;;;15.83;;
9997;SDS011;5038;53.064;8.624;2023-04-07T01:13:05;16.57;;;14.97;;
9997;SDS011;5038;53.064;8.624;2023-04-07T01:15:38;17.07;;;15.37;;
9997;SDS011;5038;53.064;8.624;2023-04-07T01:18:11;16.37;;;14.63;;
9997;SDS011;5038;53.064;8.624;2023-04-07T01:20:43;16.80;;;15.13;;
9997;SDS011;5038;53.064;8.624;2023-04-07T01:23:15;17.23;;;15.53;;
9997;SDS011;5038;53.064;8.624;2023-04-07T01:26:06;17.17;;;15.63;;
9997;SDS011;5038;53.064;8.624;2023-04-07T01:29:06;16.70;;;15.10;;
9997;SDS011;5038;53.064;8.624;2023-04-07T01:32:07;16.83;;;15.13;;
9997;SDS011;5038;53.064;8.624;2023-04-07T01:34:38;16.37;;;14.87;;
9997;SDS011;5038;53.064;8.624;2023-04-07T01:37:08;15.70;;;14.20;;
9997;SDS011;5038;53.064;8.624;2023-04-07T01:39:37;17.50;;;15.90;;
9997;SDS011;5038;53.064;8.624;2023-04-07T01:42:07;18.70;;;16.83;;
9997;SDS011;5038;53.064;8.624;2023-04-07T01:44:38;19.37;;;17.33;;
9997;SDS011;5038;53.064;8.624;2023-04-07T01:47:09;18.00;;;16.30;;
9997;SDS011;5038;53.064;8.624;2023-04-07T01:49:38;17.60;;;15.90;;
9997;SDS011;5038;53.064;8.624;2023-04-07T01:52:08;18.80;;;16.90;;
9997;SDS011;5038;53.064;8.624;2023-04-07T01:54:36;18.07;;;16.37;;
9997;SDS011;5038;53.064;8.624;2023-04-07T01:57:05;16.90;;;15.23;;
9997;SDS011;5038;53.064;8.624;2023-04-07T01:59:33;18.40;;;16.70;;
9997;SDS011;5038;53.064;8.624;2023-04-07T02:02:03;18.27;;;16.57;;
9997;SDS011;5038;53.064;8.624;2023-04-07T02:04:34;18.63;;;16.73;;
9997;SDS011;5038;53.064;8.624;2023-04-07T02:07:07;18.53;;;16.60;;
9997;SDS011;5038;53.064;8.624;2023-04-07T02:09:45;18.00;;;16.27;;
9997;SDS011;5038;53.064;8.624;2023-04-07T02:12:14;18.60;;;16.80;;
9997;SDS011;5038;53.064;8.624;2023-04-07T02:14:55;18.17;;;16.27;;
9997;SDS011;5038;53.064;8.624;2023-04-07T02:17:26;18.60;;;16.90;;
9997;SDS011;5038;53.064;8.624;2023-04-07T02:19:57;18.30;;;16.60;;
9997;SDS011;5038;53.064;8.624;2023-04-07T02:22:27;19.03;;;17.23;;
9997;SDS011;5038;53.064;8.624;2023-04-07T02:24:56;18.10;;;16.33;;
9997;SDS011;5038;53.064;8.624;2023-04-07T02:27:26;18.20;;;16.40;;
9997;SDS011;5038;53.064;8.624;2023-04-07T02:29:54;19.03;;;17.27;;
9997;SDS011;5038;53.064;8.624;2023-04-07T02:32:23;19.23;;;17.43;;
9997;SDS011;5038;53.064;8.624;2023-04-07T02:34:51;19.40;;;17.60;;
9997;SDS011;5038;53.064;8.624;2023-04-07T02:37:21;18.40;;;16.60;;
9997;SDS011;5038;53.064;8.624;2023-04-07T02:39:49;18.73;;;16.90;;
9997;SDS011;5038;53.064;8.624;2023-04-07T02:42:18;20.10;;;18.20;;
9997;SDS011;5038;53.064;8.624;2023-04-07T02:44:47;19.20;;;17.20;;
9997;SDS011;5038;53.064;8.624;2023-04-07T02:47:15;20.27;;;18.20;;
9997;SDS011;5038;53.064;8.624;2023-04-07T02:49:44;22.33;;;18.63;;
9997;SDS011;5038;53.064;8.624;2023-04-07T02:52:12;20.53;;;18.63;;
9997;SDS011;5038;53.064;8.624;2023-04-07T02:54:41;18.97;;;17.17;;
9997;SDS011;5038;53.064;8.624;2023-04-07T02:57:10;19.63;;;17.83;;
9997;SDS011;5038;53.064;8.624;2023-04-07T02:59:39;19.20;;;17.30;;
9997;SDS011;5038;53.064;8.624;2023-04-07T03:02:10;20.93;;;19.00;;
9997;SDS011;5038;53.064;8.624;2023-04-07T03:04:39;19.37;;;17.67;;
9997;SDS011;5038;53.064;8.624;2023-04-07T03:07:07;19.07;;;17.20;;
9997;SDS011;5038;53.064;8.624;2023-04-07T03:09:35;19.90;;;18.10;;
9997;SDS011;5038;53.064;8.624;2023-04-07T03:12:05;18.50;;;16.70;;
9997;SDS011;5038;53.064;8.624;2023-04-07T03:14:34;18.13;;;16.43;;
9997;SDS011;5038;53.064;8.624;2023-04-07T03:17:03;20.70;;;18.80;;
9997;SDS011;5038;53.064;8.624;2023-04-07T03:19:31;20.43;;;18.43;;
9997;SDS011;5038;53.064;8.624;2023-04-07T03:22:00;19.47;;;17.67;;
9997;SDS011;5038;53.064;8.624;2023-04-07T03:24:33;20.17;;;18.03;;
9997;SDS011;5038;53.064;8.624;2023-04-07T03:27:01;20.40;;;18.50;;
9997;SDS011;5038;53.064;8.624;2023-04-07T03:29:39;19.03;;;17.40;;
9997;SDS011;5038;53.064;8.624;2023-04-07T03:32:10;20.37;;;18.37;;
9997;SDS011;5038;53.064;8.624;2023-04-07T03:34:39;19.37;;;17.43;;
9997;SDS011;5038;53.064;8.624;2023-04-07T03:37:07;20.00;;;18.10;;
9997;SDS011;5038;53.064;8.624;2023-04-07T03:39:36;21.50;;;19.50;;
9997;SDS011;5038;53.064;8.624;2023-04-07T03:42:19;19.63;;;17.83;;
9997;SDS011;5038;53.064;8.624;2023-04-07T03:44:51;21.87;;;19.50;;
9997;SDS011;5038;53.064;8.624;2023-04-07T03:47:19;20.40;;;18.50;;
9997;SDS011;5038;53.064;8.624;2023-04-07T03:49:53;19.83;;;18.03;;
9997;SDS011;5038;53.064;8.624;2023-04-07T03:52:21;21.97;;;19.67;;
9997;SDS011;5038;53.064;8.624;2023-04-07T03:54:55;21.33;;;19.33;;
9997;SDS011;5038;53.064;8.624;2023-04-07T03:57:29;20.57;;;18.67;;
9997;SDS011;5038;53.064;8.624;2023-04-07T03:59:59;19.87;;;18.03;;
9997;SDS011;5038;53.064;8.624;2023-04-07T04:02:29;20.07;;;18.37;;
9997;SDS011;5038;53.064;8.624;2023-04-07T04:04:58;21.57;;;19.57;;
9997;SDS011;5038;53.064;8.624;2023-04-07T04:07:26;20.23;;;18.47;;
9997;SDS011;5038;53.064;8.624;2023-04-07T04:10:01;20.17;;;18.27;;
9997;SDS011;5038;53.064;8.624;2023-04-07T04:12:35;19.27;;;17.57;;
9997;SDS011;5038;53.064;8.624;2023-04-07T04:15:09;20.83;;;18.93;;
9997;SDS011;5038;53.064;8.624;2023-04-07T04:17:38;20.83;;;18.93;;
9997;SDS011;5038;53.064;8.624;2023-04-07T04:20:08;21.03;;;19.20;;
9997;SDS011;5038;53.064;8.624;2023-04-07T04:22:41;21.27;;;19.27;;
9997;SDS011;5038;53.064;8.624;2023-04-07T04:25:10;21.80;;;19.90;;
9997;SDS011;5038;53.064;8.624;2023-04-07T04:27:43;22.50;;;20.20;;
9997;SDS011;5038;53.064;8.624;2023-04-07T04:30:22;20.90;;;19.03;;
9997;SDS011;5038;53.064;8.624;2023-04-07T04:32:58;20.03;;;18.33;;
9997;SDS011;5038;53.064;8.624;2023-04-07T04:35:34;21.50;;;19.53;;
9997;SDS011;5038;53.064;8.624;2023-04-07T04:38:09;20.93;;;18.73;;
9997;SDS011;5038;53.064;8.624;2023-04-07T04:40:42;21.90;;;19.90;;
9997;SDS011;5038;53.064;8.624;2023-04-07T04:43:11;22.30;;;20.30;;
9997;SDS011;5038;53.064;8.624;2023-04-07T04:45:41;20.80;;;18.80;;
9997;SDS011;5038;53.064;8.624;2023-04-07T04:48:13;23.63;;;21.47;;
9997;SDS011;5038;53.064;8.624;2023-04-07T04:50:41;22.20;;;20.20;;
9997;SDS011;5038;53.064;8.624;2023-04-07T04:53:11;22.90;;;20.77;;
9997;SDS011;5038;53.064;8.624;2023-04-07T04:55:52;22.23;;;20.03;;
9997;SDS011;5038;53.064;8.624;2023-04-07T04:58:25;22.53;;;20.53;;
9997;SDS011;5038;53.064;8.624;2023-04-07T05:00:56;22.60;;;20.60;;
9997;SDS011;5038;53.064;8.624;2023-04-07T05:03:35;23.97;;;21.70;;
9997;SDS011;5038;53.064;8.624;2023-04-07T05:06:11;21.40;;;19.50;;
9997;SDS011;5038;53.064;8.624;2023-04-07T05:08:41;22.87;;;20.87;;
9997;SDS011;5038;53.064;8.624;2023-04-07T05:11:12;23.27;;;21.17;;
9997;SDS011;5038;53.064;8.624;2023-04-07T05:13:42;22.33;;;20.33;;
9997;SDS011;5038;53.064;8.624;2023-04-07T05:16:12;23.07;;;20.63;;
9997;SDS011;5038;53.064;8.624;2023-04-07T05:18:40;23.50;;;21.10;;
9997;SDS011;5038;53.064;8.624;2023-04-07T05:21:09;23.53;;;21.33;;
9997;SDS011;5038;53.064;8.624;2023-04-07T05:23:38;23.03;;;21.03;;
9997;SDS011;5038;53.064;8.624;2023-04-07T05:26:08;21.97;;;19.87;;
9997;SDS011;5038;53.064;8.624;2023-04-07T05:28:37;22.33;;;20.43;;
9997;SDS011;5038;53.064;8.624;2023-04-07T05:31:14;27.90;;;25.20;;
9997;SDS011;5038;53.064;8.624;2023-04-07T05:33:45;23.10;;;20.90;;
9997;SDS011;5038;53.064;8.624;2023-04-07T05:36:14;23.63;;;21.53;;
9997;SDS011;5038;53.064;8.624;2023-04-07T05:38:43;23.37;;;20.97;;
9997;SDS011;5038;53.064;8.624;2023-04-07T05:41:15;22.73;;;20.60;;
9997;SDS011;5038;53.064;8.624;2023-04-07T05:43:43;22.50;;;20.60;;
9997;SDS011;5038;53.064;8.624;2023-04-07T05:46:14;22.57;;;20.50;;
9997;SDS011;5038;53.064;8.624;2023-04-07T05:48:49;23.47;;;21.37;;
9997;SDS011;5038;53.064;8.624;2023-04-07T05:51:18;22.90;;;20.90;;
9997;SDS011;5038;53.064;8.624;2023-04-07T05:53:48;22.80;;;20.70;;
9997;SDS011;5038;53.064;8.624;2023-04-07T05:56:20;23.43;;;21.53;;
9997;SDS011;5038;53.064;8.624;2023-04-07T05:58:48;24.00;;;21.80;;
9997;SDS011;5038;53.064;8.624;2023-04-07T06:01:19;23.40;;;21.30;;
9997;SDS011;5038;53.064;8.624;2023-04-07T06:03:47;22.83;;;20.93;;
9997;SDS011;5038;53.064;8.624;2023-04-07T06:06:21;21.30;;;19.40;;
9997;SDS011;5038;53.064;8.624;2023-04-07T06:08:49;21.33;;;19.37;;
9997;SDS011;5038;53.064;8.624;2023-04-07T06:11:18;21.70;;;19.70;;
9997;SDS011;5038;53.064;8.624;2023-04-07T06:13:46;22.40;;;20.20;;
9997;SDS011;5038;53.064;8.624;2023-04-07T06:16:15;21.00;;;19.20;;
9997;SDS011;5038;53.064;8.624;2023-04-07T06:18:46;21.47;;;19.40;;
9997;SDS011;5038;53.064;8.624;2023-04-07T06:21:14;24.90;;;22.50;;
9997;SDS011;5038;53.064;8.624;2023-04-07T06:23:42;22.13;;;20.30;;
9997;SDS011;5038;53.064;8.624;2023-04-07T06:26:10;20.50;;;18.80;;
9997;SDS011;5038;53.064;8.624;2023-04-07T06:28:39;21.00;;;19.20;;
9997;SDS011;5038;53.064;8.624;2023-04-07T06:31:07;26.30;;;23.90;;
9997;SDS011;5038;53.064;8.624;2023-04-07T06:33:36;22.17;;;20.27;;
9997;SDS011;5038;53.064;8.624;2023-04-07T06:36:06;20.07;;;18.37;;
9997;SDS011;5038;53.064;8.624;2023-04-07T06:38:34;19.60;;;18.00;;
9997;SDS011;5038;53.064;8.624;2023-04-07T06:41:02;19.30;;;17.63;;
9997;SDS011;5038;53.064;8.624;2023-04-07T06:43:31;20.40;;;18.60;;
9997;SDS011;5038;53.064;8.624;2023-04-07T06:46:01;20.57;;;18.77;;
9997;SDS011;5038;53.064;8.624;2023-04-07T06:48:30;19.63;;;17.93;;
9997;SDS011;5038;53.064;8.624;2023-04-07T06:50:58;17.73;;;16.23;;
9997;SDS011;5038;53.064;8.624;2023-04-07T06:53:27;19.87;;;18.13;;
9997;SDS011;5038;53.064;8.624;2023-04-07T06:56:02;18.70;;;17.10;;
9997;SDS011;5038;53.064;8.624;2023-04-07T06:58:31;20.00;;;18.37;;
9997;SDS011;5038;53.064;8.624;2023-04-07T07:00:59;24.53;;;22.20;;
9997;SDS011;5038;53.064;8.624;2023-04-07T07:03:28;20.93;;;19.17;;
9997;SDS011;5038;53.064;8.624;2023-04-07T07:05:57;20.80;;;19.00;;
9997;SDS011;5038;53.064;8.624;2023-04-07T07:08:25;19.10;;;17.60;;
9997;SDS011;5038;53.064;8.624;2023-04-07T07:10:56;20.90;;;18.67;;
9997;SDS011;5038;53.064;8.624;2023-04-07T07:13:25;20.50;;;18.60;;
9997;SDS011;5038;53.064;8.624;2023-04-07T07:15:55;18.00;;;16.40;;
9997;SDS011;5038;53.064;8.624;2023-04-07T07:18:24;21.13;;;19.23;;
9997;SDS011;5038;53.064;8.624;2023-04-07T07:20:52;20.57;;;18.77;;
9997;SDS011;5038;53.064;8.624;2023-04-07T07:23:20;19.70;;;18.10;;
9997;SDS011;5038;53.064;8.624;2023-04-07T07:25:58;18.27;;;16.77;;
9997;SDS011;5038;53.064;8.624;2023-04-07T07:29:39;19.83;;;17.93;;
9997;SDS011;5038;53.064;8.624;2023-04-07T07:32:07;19.57;;;17.83;;
9997;SDS011;5038;53.064;8.624;2023-04-07T07:34:35;18.07;;;16.60;;
9997;SDS011;5038;53.064;8.624;2023-04-07T07:37:03;18.43;;;16.97;;
9997;SDS011;5038;53.064;8.624;2023-04-07T07:39:31;18.53;;;16.93;;
9997;SDS011;5038;53.064;8.624;2023-04-07T07:42:01;17.63;;;16.17;;
9997;SDS011;5038;53.064;8.624;2023-04-07T07:44:30;18.50;;;16.80;;
9997;SDS011;5038;53.064;8.624;2023-04-07T07:46:58;25.40;;;22.90;;
9997;SDS011;5038;53.064;8.624;2023-04-07T07:49:26;16.83;;;15.33;;
9997;SDS011;5038;53.064;8.624;2023-04-07T07:51:54;17.30;;;15.70;;
9997;SDS011;5038;53.064;8.624;2023-04-07T07:54:22;16.87;;;15.30;;
9997;SDS011;5038;53.064;8.624;2023-04-07T07:56:51;17.53;;;15.93;;
9997;SDS011;5038;53.064;8.624;2023-04-07T07:59:20;16.67;;;15.17;;
9997;SDS011;5038;53.064;8.624;2023-04-07T08:01:48;18.23;;;16.63;;
9997;SDS011;5038;53.064;8.624;2023-04-07T08:04:16;16.77;;;15.17;;
9997;SDS011;5038;53.064;8.624;2023-04-07T08:06:46;17.07;;;15.57;;
9997;SDS011;5038;53.064;8.624;2023-04-07T08:09:14;15.77;;;14.37;;
9997;SDS011;5038;53.064;8.624;2023-04-07T08:11:42;15.90;;;14.57;;
9997;SDS011;5038;53.064;8.624;2023-04-07T08:14:12;15.27;;;13.87;;
9997;SDS011;5038;53.064;8.624;2023-04-07T08:16:42;13.60;;;12.40;;
9997;SDS011;5038;53.064;8.624;2023-04-07T08:19:11;15.17;;;13.67;;
9997;SDS011;5038;53.064;8.624;2023-04-07T08:21:40;15.27;;;13.87;;
9997;SDS011;5038;53.064;8.624;2023-04-07T08:24:08;15.07;;;13.67;;
9997;SDS011;5038;53.064;8.624;2023-04-07T08:26:38;18.33;;;14.87;;
9997;SDS011;5038;53.064;8.624;2023-04-07T08:29:06;17.60;;;15.80;;
9997;SDS011;5038;53.064;8.624;2023-04-07T08:31:34;16.43;;;14.90;;
9997;SDS011;5038;53.064;8.624;2023-04-07T08:34:04;16.40;;;13.93;;
9997;SDS011;5038;53.064;8.624;2023-04-07T08:36:32;15.53;;;13.50;;
9997;SDS011;5038;53.064;8.624;2023-04-07T08:39:01;16.27;;;14.70;;
9997;SDS011;5038;53.064;8.624;2023-04-07T08:41:32;14.33;;;13.03;;
9997;SDS011;5038;53.064;8.624;2023-04-07T08:44:03;14.23;;;12.93;;
9997;SDS011;5038;53.064;8.624;2023-04-07T08:46:34;16.30;;;14.30;;
9997;SDS011;5038;53.064;8.624;2023-04-07T08:49:09;15.20;;;13.80;;
9997;SDS011;5038;53.064;8.624;2023-04-07T08:51:42;14.00;;;12.57;;
9997;SDS011;5038;53.064;8.624;2023-04-07T08:54:14;13.83;;;12.53;;
9997;SDS011;5038;53.064;8.624;2023-04-07T08:56:44;12.40;;;11.20;;
9997;SDS011;5038;53.064;8.624;2023-04-07T08:59:17;13.80;;;11.93;;
9997;SDS011;5038;53.064;8.624;2023-04-07T09:01:50;14.77;;;13.30;;
9997;SDS011;5038;53.064;8.624;2023-04-07T09:04:20;12.30;;;11.03;;
9997;SDS011;5038;53.064;8.624;2023-04-07T09:06:50;14.20;;;12.70;;
9997;SDS011;5038;53.064;8.624;2023-04-07T09:09:18;13.40;;;11.80;;
9997;SDS011;5038;53.064;8.624;2023-04-07T09:11:46;13.50;;;12.07;;
9997;SDS011;5038;53.064;8.624;2023-04-07T09:14:15;13.87;;;12.47;;
9997;SDS011;5038;53.064;8.624;2023-04-07T09:16:44;13.73;;;12.40;;
9997;SDS011;5038;53.064;8.624;2023-04-07T09:19:12;13.47;;;12.20;;
9997;SDS011;5038;53.064;8.624;2023-04-07T09:21:48;13.73;;;12.33;;
9997;SDS011;5038;53.064;8.624;2023-04-07T09:24:21;14.47;;;13.03;;
9997;SDS011;5038;53.064;8.624;2023-04-07T09:26:51;15.40;;;14.00;;
9997;SDS011;5038;53.064;8.624;2023-04-07T09:29:35;12.23;;;11.07;;
9997;SDS011;5038;53.064;8.624;2023-04-07T09:32:04;13.40;;;12.10;;
9997;SDS011;5038;53.064;8.624;2023-04-07T09:34:33;12.73;;;11.50;;
9997;SDS011;5038;53.064;8.624;2023-04-07T09:37:07;14.10;;;12.83;;
9997;SDS011;5038;53.064;8.624;2023-04-07T09:39:48;13.70;;;12.30;;
9997;SDS011;5038;53.064;8.624;2023-04-07T09:42:18;13.00;;;11.80;;
9997;SDS011;5038;53.064;8.624;2023-04-07T09:44:46;13.70;;;12.40;;
9997;SDS011;5038;53.064;8.624;2023-04-07T09:47:15;13.77;;;12.50;;
9997;SDS011;5038;53.064;8.624;2023-04-07T09:49:49;14.10;;;12.77;;
9997;SDS011;5038;53.064;8.624;2023-04-07T09:52:21;13.13;;;11.97;;
9997;SDS011;5038;53.064;8.624;2023-04-07T09:54:51;13.57;;;12.30;;
9997;SDS011;5038;53.064;8.624;2023-04-07T09:57:21;13.47;;;12.17;;
9997;SDS011;5038;53.064;8.624;2023-04-07T09:59:51;13.63;;;12.33;;
9997;SDS011;5038;53.064;8.624;2023-04-07T10:02:21;12.40;;;11.20;;
9997;SDS011;5038;53.064;8.624;2023-04-07T10:04:52;13.33;;;12.10;;
9997;SDS011;5038;53.064;8.624;2023-04-07T10:07:22;12.60;;;11.30;;
9997;SDS011;5038;53.064;8.624;2023-04-07T10:09:50;14.20;;;12.70;;
9997;SDS011;5038;53.064;8.624;2023-04-07T10:12:18;13.37;;;12.17;;
9997;SDS011;5038;53.064;8.624;2023-04-07T10:14:47;14.43;;;12.60;;
9997;SDS011;5038;53.064;8.624;2023-04-07T10:17:16;14.47;;;13.13;;
9997;SDS011;5038;53.064;8.624;2023-04-07T10:19:46;12.80;;;11.47;;
9997;SDS011;5038;53.064;8.624;2023-04-07T10:22:17;12.77;;;11.43;;
9997;SDS011;5038;53.064;8.624;2023-04-07T10:24:49;14.90;;;12.20;;
9997;SDS011;5038;53.064;8.624;2023-04-07T10:27:24;13.43;;;12.23;;
9997;SDS011;5038;53.064;8.624;2023-04-07T10:29:57;15.23;;;12.50;;
9997;SDS011;5038;53.064;8.624;2023-04-07T10:32:26;13.70;;;12.43;;
9997;SDS011;5038;53.064;8.624;2023-04-07T10:34:58;13.40;;;12.00;;
9997;SDS011;5038;53.064;8.624;2023-04-07T10:37:27;13.73;;;12.43;;
9997;SDS011;5038;53.064;8.624;2023-04-07T10:43:04;13.80;;;12.50;;
9997;SDS011;5038;53.064;8.624;2023-04-07T10:45:50;12.80;;;11.50;;
9997;SDS011;5038;53.064;8.624;2023-04-07T10:48:21;15.20;;;12.17;;
9997;SDS011;5038;53.064;8.624;2023-04-07T10:57:11;12.90;;;11.60;;
9997;SDS011;5038;53.064;8.624;2023-04-07T11:00:13;13.80;;;12.40;;
9997;SDS011;5038;53.064;8.624;2023-04-07T11:02:43;12.93;;;11.77;;
9997;SDS011;5038;53.064;8.624;2023-04-07T11:05:19;12.77;;;11.27;;
9997;SDS011;5038;53.064;8.624;2023-04-07T11:07:50;13.33;;;11.80;;
9997;SDS011;5038;53.064;8.624;2023-04-07T11:10:24;12.40;;;11.13;;
9997;SDS011;5038;53.064;8.624;2023-04-07T11:13:03;12.33;;;11.13;;
9997;SDS011;5038;53.064;8.624;2023-04-07T11:15:34;12.33;;;11.13;;
9997;SDS011;5038;53.064;8.624;2023-04-07T11:18:09;12.10;;;10.90;;
9997;SDS011;5038;53.064;8.624;2023-04-07T11:20:43;12.90;;;11.60;;
9997;SDS011;5038;53.064;8.624;2023-04-07T11:23:14;11.80;;;10.60;;
9997;SDS011;5038;53.064;8.624;2023-04-07T11:25:44;12.50;;;11.20;;
9997;SDS011;5038;53.064;8.624;2023-04-07T11:28:14;12.53;;;11.30;;
9997;SDS011;5038;53.064;8.624;2023-04-07T11:30:45;12.70;;;11.47;;
9997;SDS011;5038;53.064;8.624;2023-04-07T11:33:17;13.43;;;12.13;;
9997;SDS011;5038;53.064;8.624;2023-04-07T11:35:50;13.60;;;10.70;;
9997;SDS011;5038;53.064;8.624;2023-04-07T11:38:21;11.97;;;10.80;;
9997;SDS011;5038;53.064;8.624;2023-04-07T11:40:51;12.97;;;11.40;;
9997;SDS011;5038;53.064;8.624;2023-04-07T11:43:20;16.03;;;10.73;;
9997;SDS011;5038;53.064;8.624;2023-04-07T11:46:07;12.87;;;11.67;;
9997;SDS011;5038;53.064;8.624;2023-04-07T11:48:37;12.40;;;11.20;;
9997;SDS011;5038;53.064;8.624;2023-04-07T11:51:06;12.10;;;10.80;;
9997;SDS011;5038;53.064;8.624;2023-04-07T11:53:42;12.20;;;11.00;;
9997;SDS011;5038;53.064;8.624;2023-04-07T11:56:14;12.00;;;10.80;;
9997;SDS011;5038;53.064;8.624;2023-04-07T11:58:47;11.90;;;10.40;;
9997;SDS011;5038;53.064;8.624;2023-04-07T12:01:18;11.60;;;10.47;;
9997;SDS011;5038;53.064;8.624;2023-04-07T12:03:54;10.17;;;9.13;;
9997;SDS011;5038;53.064;8.624;2023-04-07T12:06:28;11.40;;;10.03;;
9997;SDS011;5038;53.064;8.624;2023-04-07T12:09:00;12.20;;;10.90;;
9997;SDS011;5038;53.064;8.624;2023-04-07T12:11:28;11.37;;;10.10;;
9997;SDS011;5038;53.064;8.624;2023-04-07T12:13:57;11.60;;;10.40;;
9997;SDS011;5038;53.064;8.624;2023-04-07T12:16:26;11.67;;;10.47;;
9997;SDS011;5038;53.064;8.624;2023-04-07T12:18:55;11.37;;;10.20;;
9997;SDS011;5038;53.064;8.624;2023-04-07T12:21:23;12.50;;;11.20;;
9997;SDS011;5038;53.064;8.624;2023-04-07T12:23:52;12.00;;;10.80;;
9997;SDS011;5038;53.064;8.624;2023-04-07T12:26:20;11.40;;;10.20;;
9997;SDS011;5038;53.064;8.624;2023-04-07T12:28:48;11.53;;;10.33;;
9997;SDS011;5038;53.064;8.624;2023-04-07T12:31:16;11.83;;;10.73;;
9997;SDS011;5038;53.064;8.624;2023-04-07T12:33:46;11.80;;;10.60;;
9997;SDS011;5038;53.064;8.624;2023-04-07T12:36:15;11.63;;;10.50;;
9997;SDS011;5038;53.064;8.624;2023-04-07T12:38:43;11.87;;;10.60;;
9997;SDS011;5038;53.064;8.624;2023-04-07T12:41:12;11.40;;;10.20;;
9997;SDS011;5038;53.064;8.624;2023-04-07T12:43:40;11.60;;;9.57;;
9997;SDS011;5038;53.064;8.624;2023-04-07T12:46:12;11.33;;;10.23;;
9997;SDS011;5038;53.064;8.624;2023-04-07T12:48:40;11.27;;;10.00;;
9997;SDS011;5038;53.064;8.624;2023-04-07T12:51:09;11.93;;;10.73;;
9997;SDS011;5038;53.064;8.624;2023-04-07T12:53:38;11.73;;;10.23;;
9997;SDS011;5038;53.064;8.624;2023-04-07T12:56:06;14.30;;;11.90;;
9997;SDS011;5038;53.064;8.624;2023-04-07T12:58:34;11.10;;;9.80;;
9997;SDS011;5038;53.064;8.624;2023-04-07T13:01:02;11.20;;;10.00;;
9997;SDS011;5038;53.064;8.624;2023-04-07T13:03:31;12.23;;;10.97;;
9997;SDS011;5038;53.064;8.624;2023-04-07T13:06:01;11.53;;;10.37;;
9997;SDS011;5038;53.064;8.624;2023-04-07T13:08:31;11.97;;;10.67;;
9997;SDS011;5038;53.064;8.624;2023-04-07T13:10:59;12.40;;;10.80;;
9997;SDS011;5038;53.064;8.624;2023-04-07T13:13:27;11.33;;;10.23;;
9997;SDS011;5038;53.064;8.624;2023-04-07T13:15:55;12.60;;;11.30;;
9997;SDS011;5038;53.064;8.624;2023-04-07T13:18:23;13.13;;;11.37;;
9997;SDS011;5038;53.064;8.624;2023-04-07T13:20:51;12.63;;;11.33;;
9997;SDS011;5038;53.064;8.624;2023-04-07T13:23:41;10.93;;;9.70;;
9997;SDS011;5038;53.064;8.624;2023-04-07T13:26:09;11.27;;;9.50;;
9997;SDS011;5038;53.064;8.624;2023-04-07T13:28:37;11.57;;;10.30;;
9997;SDS011;5038;53.064;8.624;2023-04-07T13:31:06;13.20;;;11.60;;
9997;SDS011;5038;53.064;8.624;2023-04-07T13:33:37;12.93;;;11.60;;
9997;SDS011;5038;53.064;8.624;2023-04-07T13:36:06;12.60;;;10.80;;
9997;SDS011;5038;53.064;8.624;2023-04-07T13:38:34;12.23;;;11.03;;
9997;SDS011;5038;53.064;8.624;2023-04-07T13:41:04;11.90;;;10.70;;
9997;SDS011;5038;53.064;8.624;2023-04-07T13:43:32;10.77;;;9.67;;
9997;SDS011;5038;53.064;8.624;2023-04-07T13:46:00;11.90;;;10.37;;
9997;SDS011;5038;53.064;8.624;2023-04-07T13:48:33;13.83;;;10.13;;
9997;SDS011;5038;53.064;8.624;2023-04-07T13:51:01;11.03;;;9.93;;
9997;SDS011;5038;53.064;8.624;2023-04-07T13:53:29;11.17;;;10.03;;
9997;SDS011;5038;53.064;8.624;2023-04-07T13:55:57;10.43;;;9.33;;
9997;SDS011;5038;53.064;8.624;2023-04-07T13:58:27;13.13;;;10.40;;
9997;SDS011;5038;53.064;8.624;2023-04-07T14:00:57;11.27;;;10.07;;
9997;SDS011;5038;53.064;8.624;2023-04-07T14:03:25;10.47;;;9.47;;
9997;SDS011;5038;53.064;8.624;2023-04-07T14:05:54;10.27;;;9.27;;
9997;SDS011;5038;53.064;8.624;2023-04-07T14:08:26;12.70;;;9.47;;
9997;SDS011;5038;53.064;8.624;2023-04-07T14:10:54;10.10;;;8.70;;
9997;SDS011;5038;53.064;8.624;2023-04-07T14:13:23;10.13;;;9.13;;
9997;SDS011;5038;53.064;8.624;2023-04-07T14:15:52;10.30;;;9.30;;
9997;SDS011;5038;53.064;8.624;2023-04-07T14:18:21;10.20;;;9.20;;
9997;SDS011;5038;53.064;8.624;2023-04-07T14:20:49;9.90;;;8.90;;
9997;SDS011;5038;53.064;8.624;2023-04-07T14:23:17;9.80;;;8.07;;
9997;SDS011;5038;53.064;8.624;2023-04-07T14:26:02;11.23;;;8.83;;
9997;SDS011;5038;53.064;8.624;2023-04-07T14:28:30;10.40;;;8.40;;
9997;SDS011;5038;53.064;8.624;2023-04-07T14:31:00;9.07;;;8.17;;
9997;SDS011;5038;53.064;8.624;2023-04-07T14:33:28;9.33;;;8.43;;
9997;SDS011;5038;53.064;8.624;2023-04-07T14:35:56;10.53;;;8.67;;
9997;SDS011;5038;53.064;8.624;2023-04-07T14:38:24;8.23;;;7.43;;
9997;SDS011;5038;53.064;8.624;2023-04-07T14:40:53;9.17;;;8.27;;
9997;SDS011;5038;53.064;8.624;2023-04-07T14:43:22;9.27;;;8.33;;
9997;SDS011;5038;53.064;8.624;2023-04-07T14:45:53;9.47;;;8.50;;
9997;SDS011;5038;53.064;8.624;2023-04-07T14:48:23;8.90;;;7.80;;
9997;SDS011;5038;53.064;8.624;2023-04-07T14:50:51;9.37;;;8.37;;
9997;SDS011;5038;53.064;8.624;2023-04-07T14:53:34;9.27;;;7.47;;
9997;SDS011;5038;53.064;8.624;2023-04-07T14:56:02;9.57;;;8.37;;
9997;SDS011;5038;53.064;8.624;2023-04-07T14:58:31;8.17;;;7.00;;
9997;SDS011;5038;53.064;8.624;2023-04-07T15:01:02;10.03;;;7.97;;
9997;SDS011;5038;53.064;8.624;2023-04-07T15:03:33;8.33;;;7.33;;
9997;SDS011;5038;53.064;8.624;2023-04-07T15:06:05;7.93;;;7.13;;
9997;SDS011;5038;53.064;8.624;2023-04-07T15:08:34;8.50;;;7.50;;
9997;SDS011;5038;53.064;8.624;2023-04-07T15:11:02;8.10;;;7.10;;
9997;SDS011;5038;53.064;8.624;2023-04-07T15:13:31;7.97;;;6.60;;
9997;SDS011;5038;53.064;8.624;2023-04-07T15:16:04;11.10;;;6.70;;
9997;SDS011;5038;53.064;8.624;2023-04-07T15:18:36;7.80;;;6.80;;
9997;SDS011;5038;53.064;8.624;2023-04-07T15:21:05;9.63;;;6.77;;